sensor_id;sensor_type;location;lat;lon;timestamp;P1;durP1;ratioP1;P2;durP2;ratioP2
21501;SDS011;27639;48.674;9.242;2023-02-22T00:00:39;13.77;;;9.52;;
21501;SDS011;27639;48.674;9.242;2023-02-22T00:03:12;16.17;;;9.20;;
21501;SDS011;27639;48.674;9.242;2023-02-22T00:06:03;17.67;;;9.18;;
21501;SDS011;27639;48.674;9.242;2023-02-22T00:08:30;15.15;;;8.80;;
21501;SDS011;27639;48.674;9.242;2023-02-22T00:10:58;14.20;;;9.10;;
21501;SDS011;27639;48.674;9.242;2023-02-22T00:13:25;15.55;;;9.93;;
21501;SDS011;27639;48.674;9.242;2023-02-22T00:15:55;13.48;;;8.65;;
21501;SDS011;27639;48.674;9.242;2023-02-22T00:18:22;15.30;;;9.05;;
21501;SDS011;27639;48.674;9.242;2023-02-22T00:20:48;17.02;;;9.77;;
21501;SDS011;27639;48.674;9.242;2023-02-22T00:23:18;15.02;;;9.30;;
21501;SDS011;27639;48.674;9.242;2023-02-22T00:25:45;13.85;;;8.68;;
21501;SDS011;27639;48.674;9.242;2023-02-22T00:28:12;14.05;;;8.40;;
21501;SDS011;27639;48.674;9.242;2023-02-22T00:30:39;11.50;;;8.35;;
21501;SDS011;27639;48.674;9.242;2023-02-22T00:33:07;13.77;;;8.30;;
21501;SDS011;27639;48.674;9.242;2023-02-22T00:35:34;14.15;;;8.45;;
21501;SDS011;27639;48.674;9.242;2023-02-22T00:38:00;12.68;;;8.10;;
21501;SDS011;27639;48.674;9.242;2023-02-22T00:40:29;14.13;;;8.63;;
21501;SDS011;27639;48.674;9.242;2023-02-22T00:42:57;12.98;;;9.05;;
21501;SDS011;27639;48.674;9.242;2023-02-22T00:45:25;12.45;;;7.97;;
21501;SDS011;27639;48.674;9.242;2023-02-22T00:47:52;13.40;;;8.32;;
21501;SDS011;27639;48.674;9.242;2023-02-22T00:50:21;13.10;;;7.95;;
21501;SDS011;27639;48.674;9.242;2023-02-22T00:52:47;14.60;;;8.77;;
21501;SDS011;27639;48.674;9.242;2023-02-22T00:55:18;13.55;;;8.32;;
21501;SDS011;27639;48.674;9.242;2023-02-22T00:57:49;13.23;;;8.13;;
21501;SDS011;27639;48.674;9.242;2023-02-22T01:00:22;13.98;;;7.93;;
21501;SDS011;27639;48.674;9.242;2023-02-22T01:02:50;12.93;;;8.15;;
21501;SDS011;27639;48.674;9.242;2023-02-22T01:05:18;11.85;;;7.82;;
21501;SDS011;27639;48.674;9.242;2023-02-22T01:07:45;13.43;;;7.85;;
21501;SDS011;27639;48.674;9.242;2023-02-22T01:10:12;13.95;;;8.23;;
21501;SDS011;27639;48.674;9.242;2023-02-22T01:12:37;13.75;;;7.72;;
21501;SDS011;27639;48.674;9.242;2023-02-22T01:15:04;13.65;;;8.43;;
21501;SDS011;27639;48.674;9.242;2023-02-22T01:17:34;15.27;;;7.82;;
21501;SDS011;27639;48.674;9.242;2023-02-22T01:20:00;11.10;;;7.55;;
21501;SDS011;27639;48.674;9.242;2023-02-22T01:22:28;12.88;;;7.88;;
21501;SDS011;27639;48.674;9.242;2023-02-22T01:24:54;12.52;;;8.02;;
21501;SDS011;27639;48.674;9.242;2023-02-22T01:27:19;14.55;;;7.60;;
21501;SDS011;27639;48.674;9.242;2023-02-22T01:29:47;10.32;;;6.63;;
21501;SDS011;27639;48.674;9.242;2023-02-22T01:32:14;11.63;;;7.13;;
21501;SDS011;27639;48.674;9.242;2023-02-22T01:34:39;13.57;;;7.50;;
21501;SDS011;27639;48.674;9.242;2023-02-22T01:37:06;11.20;;;7.07;;
21501;SDS011;27639;48.674;9.242;2023-02-22T01:39:32;10.55;;;7.35;;
21501;SDS011;27639;48.674;9.242;2023-02-22T01:41:57;13.13;;;7.28;;
21501;SDS011;27639;48.674;9.242;2023-02-22T01:44:28;9.60;;;6.10;;
21501;SDS011;27639;48.674;9.242;2023-02-22T01:46:55;11.85;;;6.70;;
21501;SDS011;27639;48.674;9.242;2023-02-22T01:49:23;12.73;;;7.20;;
21501;SDS011;27639;48.674;9.242;2023-02-22T01:51:52;11.55;;;7.15;;
21501;SDS011;27639;48.674;9.242;2023-02-22T01:54:26;10.75;;;6.82;;
21501;SDS011;27639;48.674;9.242;2023-02-22T01:57:00;11.70;;;7.38;;
21501;SDS011;27639;48.674;9.242;2023-02-22T01:59:47;11.40;;;6.45;;
21501;SDS011;27639;48.674;9.242;2023-02-22T02:02:16;10.30;;;6.22;;
21501;SDS011;27639;48.674;9.242;2023-02-22T02:04:45;11.60;;;6.65;;
21501;SDS011;27639;48.674;9.242;2023-02-22T02:07:12;12.35;;;7.32;;
21501;SDS011;27639;48.674;9.242;2023-02-22T02:09:55;12.27;;;7.00;;
21501;SDS011;27639;48.674;9.242;2023-02-22T02:12:23;10.48;;;6.43;;
21501;SDS011;27639;48.674;9.242;2023-02-22T02:14:50;12.48;;;7.30;;
21501;SDS011;27639;48.674;9.242;2023-02-22T02:17:17;10.73;;;6.85;;
21501;SDS011;27639;48.674;9.242;2023-02-22T02:25:16;10.43;;;7.00;;
21501;SDS011;27639;48.674;9.242;2023-02-22T02:27:52;12.65;;;7.60;;
21501;SDS011;27639;48.674;9.242;2023-02-22T02:35:57;13.90;;;7.65;;
21501;SDS011;27639;48.674;9.242;2023-02-22T02:41:09;12.70;;;7.68;;
21501;SDS011;27639;48.674;9.242;2023-02-22T02:49:05;11.70;;;6.78;;
21501;SDS011;27639;48.674;9.242;2023-02-22T02:51:35;11.73;;;7.28;;
21501;SDS011;27639;48.674;9.242;2023-02-22T02:54:05;9.70;;;6.80;;
21501;SDS011;27639;48.674;9.242;2023-02-22T02:56:32;12.18;;;7.47;;
21501;SDS011;27639;48.674;9.242;2023-02-22T02:58:58;11.32;;;6.88;;
21501;SDS011;27639;48.674;9.242;2023-02-22T03:07:23;11.02;;;7.40;;
21501;SDS011;27639;48.674;9.242;2023-02-22T03:09:52;12.10;;;7.32;;
21501;SDS011;27639;48.674;9.242;2023-02-22T03:12:44;10.13;;;7.10;;
21501;SDS011;27639;48.674;9.242;2023-02-22T03:18:26;13.18;;;7.40;;
21501;SDS011;27639;48.674;9.242;2023-02-22T03:26:18;11.32;;;6.72;;
21501;SDS011;27639;48.674;9.242;2023-02-22T03:28:48;11.85;;;7.40;;
21501;SDS011;27639;48.674;9.242;2023-02-22T03:31:22;11.60;;;6.70;;
21501;SDS011;27639;48.674;9.242;2023-02-22T03:33:59;12.18;;;7.07;;
21501;SDS011;27639;48.674;9.242;2023-02-22T03:36:29;11.55;;;6.88;;
21501;SDS011;27639;48.674;9.242;2023-02-22T03:38:58;9.48;;;6.90;;
21501;SDS011;27639;48.674;9.242;2023-02-22T03:41:28;10.02;;;7.07;;
21501;SDS011;27639;48.674;9.242;2023-02-22T03:44:03;11.35;;;6.88;;
21501;SDS011;27639;48.674;9.242;2023-02-22T03:46:37;11.15;;;7.20;;
21501;SDS011;27639;48.674;9.242;2023-02-22T03:49:08;10.52;;;6.68;;
21501;SDS011;27639;48.674;9.242;2023-02-22T03:51:38;10.18;;;7.22;;
21501;SDS011;27639;48.674;9.242;2023-02-22T03:54:04;11.93;;;7.40;;
21501;SDS011;27639;48.674;9.242;2023-02-22T03:56:32;13.15;;;8.57;;
21501;SDS011;27639;48.674;9.242;2023-02-22T03:59:18;15.35;;;10.18;;
21501;SDS011;27639;48.674;9.242;2023-02-22T04:01:49;12.50;;;9.13;;
21501;SDS011;27639;48.674;9.242;2023-02-22T04:04:15;13.90;;;8.68;;
21501;SDS011;27639;48.674;9.242;2023-02-22T04:06:42;13.95;;;8.50;;
21501;SDS011;27639;48.674;9.242;2023-02-22T04:09:08;11.93;;;8.02;;
21501;SDS011;27639;48.674;9.242;2023-02-22T04:11:33;12.02;;;7.45;;
21501;SDS011;27639;48.674;9.242;2023-02-22T04:13:59;11.15;;;6.95;;
21501;SDS011;27639;48.674;9.242;2023-02-22T04:16:25;11.40;;;6.75;;
21501;SDS011;27639;48.674;9.242;2023-02-22T04:18:50;10.82;;;6.90;;
21501;SDS011;27639;48.674;9.242;2023-02-22T04:21:16;12.00;;;7.22;;
21501;SDS011;27639;48.674;9.242;2023-02-22T04:23:41;13.32;;;7.78;;
21501;SDS011;27639;48.674;9.242;2023-02-22T04:26:07;10.95;;;7.68;;
21501;SDS011;27639;48.674;9.242;2023-02-22T04:28:33;12.48;;;7.68;;
21501;SDS011;27639;48.674;9.242;2023-02-22T04:30:58;13.23;;;8.15;;
21501;SDS011;27639;48.674;9.242;2023-02-22T04:33:24;13.50;;;7.50;;
21501;SDS011;27639;48.674;9.242;2023-02-22T04:35:49;10.13;;;6.82;;
21501;SDS011;27639;48.674;9.242;2023-02-22T04:38:15;10.40;;;6.95;;
21501;SDS011;27639;48.674;9.242;2023-02-22T04:40:41;11.13;;;7.50;;
21501;SDS011;27639;48.674;9.242;2023-02-22T04:43:07;11.90;;;7.15;;
21501;SDS011;27639;48.674;9.242;2023-02-22T04:45:32;12.02;;;7.10;;
21501;SDS011;27639;48.674;9.242;2023-02-22T04:47:58;13.50;;;7.47;;
21501;SDS011;27639;48.674;9.242;2023-02-22T04:50:23;13.63;;;7.68;;
21501;SDS011;27639;48.674;9.242;2023-02-22T04:52:49;11.77;;;7.05;;
21501;SDS011;27639;48.674;9.242;2023-02-22T04:55:15;10.45;;;6.60;;
21501;SDS011;27639;48.674;9.242;2023-02-22T04:57:41;13.93;;;7.43;;
21501;SDS011;27639;48.674;9.242;2023-02-22T05:00:07;12.73;;;7.55;;
21501;SDS011;27639;48.674;9.242;2023-02-22T05:02:34;10.73;;;7.13;;
21501;SDS011;27639;48.674;9.242;2023-02-22T05:05:03;10.57;;;7.38;;
21501;SDS011;27639;48.674;9.242;2023-02-22T05:07:29;10.60;;;7.53;;
21501;SDS011;27639;48.674;9.242;2023-02-22T05:09:55;12.65;;;7.55;;
21501;SDS011;27639;48.674;9.242;2023-02-22T05:12:20;11.80;;;7.10;;
21501;SDS011;27639;48.674;9.242;2023-02-22T05:14:46;11.85;;;7.45;;
21501;SDS011;27639;48.674;9.242;2023-02-22T05:17:11;9.45;;;7.45;;
21501;SDS011;27639;48.674;9.242;2023-02-22T05:19:37;14.82;;;8.02;;
21501;SDS011;27639;48.674;9.242;2023-02-22T05:22:03;11.40;;;7.88;;
21501;SDS011;27639;48.674;9.242;2023-02-22T05:24:29;11.52;;;7.25;;
21501;SDS011;27639;48.674;9.242;2023-02-22T05:26:56;13.10;;;8.07;;
21501;SDS011;27639;48.674;9.242;2023-02-22T05:29:22;11.25;;;7.22;;
21501;SDS011;27639;48.674;9.242;2023-02-22T05:31:47;11.23;;;7.45;;
21501;SDS011;27639;48.674;9.242;2023-02-22T05:34:13;12.05;;;7.53;;
21501;SDS011;27639;48.674;9.242;2023-02-22T05:36:39;9.45;;;7.10;;
21501;SDS011;27639;48.674;9.242;2023-02-22T05:39:04;11.57;;;7.47;;
21501;SDS011;27639;48.674;9.242;2023-02-22T05:41:30;11.10;;;7.10;;
21501;SDS011;27639;48.674;9.242;2023-02-22T05:43:56;10.20;;;6.80;;
21501;SDS011;27639;48.674;9.242;2023-02-22T05:46:21;9.82;;;6.68;;
21501;SDS011;27639;48.674;9.242;2023-02-22T05:48:47;11.23;;;6.53;;
21501;SDS011;27639;48.674;9.242;2023-02-22T05:51:12;10.43;;;6.47;;
21501;SDS011;27639;48.674;9.242;2023-02-22T05:53:38;9.02;;;6.32;;
21501;SDS011;27639;48.674;9.242;2023-02-22T05:56:03;12.55;;;6.47;;
21501;SDS011;27639;48.674;9.242;2023-02-22T05:58:29;9.45;;;6.63;;
21501;SDS011;27639;48.674;9.242;2023-02-22T06:00:55;12.13;;;7.00;;
21501;SDS011;27639;48.674;9.242;2023-02-22T06:03:21;9.95;;;6.55;;
21501;SDS011;27639;48.674;9.242;2023-02-22T06:05:46;11.48;;;6.32;;
21501;SDS011;27639;48.674;9.242;2023-02-22T06:08:12;10.82;;;6.63;;
21501;SDS011;27639;48.674;9.242;2023-02-22T06:10:37;9.82;;;6.53;;
21501;SDS011;27639;48.674;9.242;2023-02-22T06:13:03;10.75;;;7.03;;
21501;SDS011;27639;48.674;9.242;2023-02-22T06:15:30;10.13;;;7.13;;
21501;SDS011;27639;48.674;9.242;2023-02-22T06:17:55;11.82;;;6.25;;
21501;SDS011;27639;48.674;9.242;2023-02-22T06:20:23;13.02;;;8.25;;
21501;SDS011;27639;48.674;9.242;2023-02-22T06:22:50;12.35;;;7.18;;
21501;SDS011;27639;48.674;9.242;2023-02-22T06:25:17;13.35;;;8.55;;
21501;SDS011;27639;48.674;9.242;2023-02-22T06:27:44;11.13;;;8.18;;
21501;SDS011;27639;48.674;9.242;2023-02-22T06:30:10;12.32;;;8.38;;
21501;SDS011;27639;48.674;9.242;2023-02-22T06:32:37;10.48;;;7.05;;
21501;SDS011;27639;48.674;9.242;2023-02-22T06:35:03;12.02;;;8.02;;
21501;SDS011;27639;48.674;9.242;2023-02-22T06:37:29;11.40;;;7.32;;
21501;SDS011;27639;48.674;9.242;2023-02-22T06:39:54;11.45;;;7.72;;
21501;SDS011;27639;48.674;9.242;2023-02-22T06:42:20;13.55;;;7.65;;
21501;SDS011;27639;48.674;9.242;2023-02-22T06:44:45;10.80;;;7.65;;
21501;SDS011;27639;48.674;9.242;2023-02-22T06:47:11;10.82;;;7.90;;
21501;SDS011;27639;48.674;9.242;2023-02-22T06:49:37;11.70;;;8.27;;
21501;SDS011;27639;48.674;9.242;2023-02-22T06:52:04;10.75;;;7.45;;
21501;SDS011;27639;48.674;9.242;2023-02-22T06:54:30;13.02;;;7.90;;
21501;SDS011;27639;48.674;9.242;2023-02-22T06:56:56;10.77;;;7.82;;
21501;SDS011;27639;48.674;9.242;2023-02-22T06:59:21;9.95;;;6.97;;
21501;SDS011;27639;48.674;9.242;2023-02-22T07:01:47;12.15;;;6.82;;
21501;SDS011;27639;48.674;9.242;2023-02-22T07:04:13;12.13;;;8.07;;
21501;SDS011;27639;48.674;9.242;2023-02-22T07:06:43;9.18;;;6.60;;
21501;SDS011;27639;48.674;9.242;2023-02-22T07:09:11;11.40;;;7.20;;
21501;SDS011;27639;48.674;9.242;2023-02-22T07:11:37;9.27;;;7.03;;
21501;SDS011;27639;48.674;9.242;2023-02-22T07:14:03;11.70;;;7.10;;
21501;SDS011;27639;48.674;9.242;2023-02-22T07:16:29;9.25;;;6.85;;
21501;SDS011;27639;48.674;9.242;2023-02-22T07:18:54;11.30;;;6.95;;
21501;SDS011;27639;48.674;9.242;2023-02-22T07:21:20;10.35;;;7.28;;
21501;SDS011;27639;48.674;9.242;2023-02-22T07:23:49;12.95;;;7.63;;
21501;SDS011;27639;48.674;9.242;2023-02-22T07:26:17;11.90;;;7.18;;
21501;SDS011;27639;48.674;9.242;2023-02-22T07:28:42;11.23;;;8.02;;
21501;SDS011;27639;48.674;9.242;2023-02-22T07:31:08;9.05;;;7.25;;
21501;SDS011;27639;48.674;9.242;2023-02-22T07:33:33;9.85;;;6.55;;
21501;SDS011;27639;48.674;9.242;2023-02-22T07:35:59;10.65;;;7.00;;
21501;SDS011;27639;48.674;9.242;2023-02-22T07:38:25;10.55;;;7.53;;
21501;SDS011;27639;48.674;9.242;2023-02-22T07:40:50;13.88;;;8.05;;
21501;SDS011;27639;48.674;9.242;2023-02-22T07:45:46;12.73;;;8.38;;
21501;SDS011;27639;48.674;9.242;2023-02-22T07:48:12;14.32;;;8.27;;
21501;SDS011;27639;48.674;9.242;2023-02-22T07:50:40;12.70;;;7.93;;
21501;SDS011;27639;48.674;9.242;2023-02-22T07:53:07;12.45;;;7.93;;
21501;SDS011;27639;48.674;9.242;2023-02-22T07:55:36;11.95;;;7.65;;
21501;SDS011;27639;48.674;9.242;2023-02-22T07:58:03;13.05;;;7.95;;
21501;SDS011;27639;48.674;9.242;2023-02-22T08:00:31;11.35;;;7.65;;
21501;SDS011;27639;48.674;9.242;2023-02-22T08:02:58;11.73;;;7.70;;
21501;SDS011;27639;48.674;9.242;2023-02-22T08:05:25;13.15;;;8.20;;
21501;SDS011;27639;48.674;9.242;2023-02-22T08:07:51;13.15;;;8.20;;
21501;SDS011;27639;48.674;9.242;2023-02-22T08:10:18;11.48;;;7.55;;
21501;SDS011;27639;48.674;9.242;2023-02-22T08:12:46;13.00;;;8.50;;
21501;SDS011;27639;48.674;9.242;2023-02-22T08:15:18;14.55;;;8.98;;
21501;SDS011;27639;48.674;9.242;2023-02-22T08:17:45;14.30;;;8.05;;
21501;SDS011;27639;48.674;9.242;2023-02-22T08:20:10;11.10;;;8.00;;
21501;SDS011;27639;48.674;9.242;2023-02-22T08:22:37;10.57;;;7.68;;
21501;SDS011;27639;48.674;9.242;2023-02-22T08:25:02;12.10;;;8.43;;
21501;SDS011;27639;48.674;9.242;2023-02-22T08:27:29;17.83;;;8.40;;
21501;SDS011;27639;48.674;9.242;2023-02-22T08:29:55;12.50;;;8.48;;
21501;SDS011;27639;48.674;9.242;2023-02-22T08:32:21;12.65;;;8.25;;
21501;SDS011;27639;48.674;9.242;2023-02-22T08:34:47;14.55;;;8.82;;
21501;SDS011;27639;48.674;9.242;2023-02-22T08:37:13;14.45;;;8.70;;
21501;SDS011;27639;48.674;9.242;2023-02-22T08:39:40;14.85;;;8.52;;
21501;SDS011;27639;48.674;9.242;2023-02-22T08:42:05;13.43;;;8.68;;
21501;SDS011;27639;48.674;9.242;2023-02-22T08:44:33;12.95;;;9.15;;
21501;SDS011;27639;48.674;9.242;2023-02-22T08:46:59;12.20;;;8.32;;
21501;SDS011;27639;48.674;9.242;2023-02-22T08:49:24;12.27;;;8.13;;
21501;SDS011;27639;48.674;9.242;2023-02-22T08:51:50;12.40;;;8.90;;
21501;SDS011;27639;48.674;9.242;2023-02-22T08:54:15;11.45;;;7.82;;
21501;SDS011;27639;48.674;9.242;2023-02-22T08:56:42;13.68;;;8.27;;
21501;SDS011;27639;48.674;9.242;2023-02-22T08:59:08;13.70;;;8.60;;
21501;SDS011;27639;48.674;9.242;2023-02-22T09:01:33;11.65;;;8.30;;
21501;SDS011;27639;48.674;9.242;2023-02-22T09:03:59;13.13;;;8.70;;
21501;SDS011;27639;48.674;9.242;2023-02-22T09:06:26;13.00;;;8.85;;
21501;SDS011;27639;48.674;9.242;2023-02-22T09:08:52;12.02;;;8.55;;
21501;SDS011;27639;48.674;9.242;2023-02-22T09:11:17;12.57;;;9.00;;
21501;SDS011;27639;48.674;9.242;2023-02-22T09:13:43;13.07;;;9.15;;
21501;SDS011;27639;48.674;9.242;2023-02-22T09:16:08;12.40;;;8.65;;
21501;SDS011;27639;48.674;9.242;2023-02-22T09:18:34;12.45;;;9.38;;
21501;SDS011;27639;48.674;9.242;2023-02-22T09:21:00;11.98;;;8.85;;
21501;SDS011;27639;48.674;9.242;2023-02-22T09:23:26;12.40;;;9.27;;
21501;SDS011;27639;48.674;9.242;2023-02-22T09:25:52;14.10;;;9.25;;
21501;SDS011;27639;48.674;9.242;2023-02-22T09:28:18;13.95;;;9.02;;
21501;SDS011;27639;48.674;9.242;2023-02-22T09:30:43;13.95;;;9.00;;
21501;SDS011;27639;48.674;9.242;2023-02-22T09:33:10;16.77;;;9.75;;
21501;SDS011;27639;48.674;9.242;2023-02-22T09:35:40;13.30;;;8.65;;
21501;SDS011;27639;48.674;9.242;2023-02-22T09:38:10;11.75;;;8.35;;
21501;SDS011;27639;48.674;9.242;2023-02-22T09:40:42;13.95;;;8.32;;
21501;SDS011;27639;48.674;9.242;2023-02-22T09:43:32;15.80;;;8.95;;
21501;SDS011;27639;48.674;9.242;2023-02-22T09:51:18;13.73;;;8.73;;
21501;SDS011;27639;48.674;9.242;2023-02-22T09:53:46;11.88;;;8.10;;
21501;SDS011;27639;48.674;9.242;2023-02-22T09:56:15;13.30;;;8.27;;
21501;SDS011;27639;48.674;9.242;2023-02-22T09:58:44;12.27;;;8.77;;
21501;SDS011;27639;48.674;9.242;2023-02-22T10:01:23;11.00;;;8.25;;
21501;SDS011;27639;48.674;9.242;2023-02-22T10:06:36;14.80;;;8.38;;
21501;SDS011;27639;48.674;9.242;2023-02-22T10:09:03;13.30;;;8.57;;
21501;SDS011;27639;48.674;9.242;2023-02-22T10:25:13;11.25;;;8.18;;
21501;SDS011;27639;48.674;9.242;2023-02-22T10:30:27;12.18;;;8.48;;
21501;SDS011;27639;48.674;9.242;2023-02-22T10:35:43;13.00;;;8.43;;
21501;SDS011;27639;48.674;9.242;2023-02-22T10:40:52;14.60;;;8.30;;
21501;SDS011;27639;48.674;9.242;2023-02-22T10:43:26;12.75;;;9.25;;
21501;SDS011;27639;48.674;9.242;2023-02-22T10:45:52;13.40;;;9.10;;
21501;SDS011;27639;48.674;9.242;2023-02-22T10:48:22;13.95;;;9.35;;
21501;SDS011;27639;48.674;9.242;2023-02-22T10:50:50;11.90;;;8.23;;
21501;SDS011;27639;48.674;9.242;2023-02-22T10:53:18;13.95;;;8.63;;
21501;SDS011;27639;48.674;9.242;2023-02-22T10:58:45;12.75;;;8.30;;
21501;SDS011;27639;48.674;9.242;2023-02-22T11:03:58;11.63;;;8.02;;
21501;SDS011;27639;48.674;9.242;2023-02-22T11:06:37;11.90;;;8.30;;
21501;SDS011;27639;48.674;9.242;2023-02-22T11:09:14;13.85;;;8.55;;
21501;SDS011;27639;48.674;9.242;2023-02-22T11:11:48;14.75;;;8.82;;
21501;SDS011;27639;48.674;9.242;2023-02-22T11:14:28;12.40;;;9.10;;
21501;SDS011;27639;48.674;9.242;2023-02-22T11:16:55;11.93;;;8.65;;
21501;SDS011;27639;48.674;9.242;2023-02-22T11:22:18;13.63;;;9.18;;
21501;SDS011;27639;48.674;9.242;2023-02-22T11:24:46;12.90;;;8.88;;
21501;SDS011;27639;48.674;9.242;2023-02-22T11:38:27;13.43;;;8.35;;
21501;SDS011;27639;48.674;9.242;2023-02-22T11:40:45;13.10;;;9.05;;
21501;SDS011;27639;48.674;9.242;2023-02-22T11:43:16;12.80;;;8.18;;
21501;SDS011;27639;48.674;9.242;2023-02-22T11:46:03;12.95;;;8.75;;
21501;SDS011;27639;48.674;9.242;2023-02-22T11:48:37;15.68;;;8.57;;
21501;SDS011;27639;48.674;9.242;2023-02-22T11:51:58;13.70;;;8.75;;
21501;SDS011;27639;48.674;9.242;2023-02-22T12:03:33;11.30;;;7.45;;
21501;SDS011;27639;48.674;9.242;2023-02-22T12:20:22;11.05;;;7.50;;
21501;SDS011;27639;48.674;9.242;2023-02-22T12:22:57;12.13;;;7.43;;
21501;SDS011;27639;48.674;9.242;2023-02-22T12:25:32;13.43;;;6.97;;
21501;SDS011;27639;48.674;9.242;2023-02-22T12:28:15;11.48;;;7.38;;
21501;SDS011;27639;48.674;9.242;2023-02-22T12:30:45;14.82;;;7.25;;
21501;SDS011;27639;48.674;9.242;2023-02-22T12:33:29;13.00;;;7.70;;
21501;SDS011;27639;48.674;9.242;2023-02-22T12:36:04;10.77;;;7.10;;
21501;SDS011;27639;48.674;9.242;2023-02-22T12:38:34;12.02;;;7.53;;
21501;SDS011;27639;48.674;9.242;2023-02-22T12:43:45;11.93;;;8.13;;
21501;SDS011;27639;48.674;9.242;2023-02-22T12:46:23;10.85;;;8.32;;
21501;SDS011;27639;48.674;9.242;2023-02-22T12:49:07;13.52;;;8.73;;
21501;SDS011;27639;48.674;9.242;2023-02-22T12:52:09;11.80;;;8.75;;
21501;SDS011;27639;48.674;9.242;2023-02-22T12:54:45;12.77;;;8.82;;
21501;SDS011;27639;48.674;9.242;2023-02-22T13:02:45;14.38;;;8.70;;
21501;SDS011;27639;48.674;9.242;2023-02-22T13:05:24;14.32;;;9.27;;
21501;SDS011;27639;48.674;9.242;2023-02-22T13:11:03;13.63;;;9.38;;
21501;SDS011;27639;48.674;9.242;2023-02-22T13:16:29;13.80;;;9.13;;
21501;SDS011;27639;48.674;9.242;2023-02-22T13:19:02;17.75;;;9.90;;
21501;SDS011;27639;48.674;9.242;2023-02-22T13:21:44;13.73;;;10.10;;
21501;SDS011;27639;48.674;9.242;2023-02-22T13:26:46;11.32;;;9.18;;
21501;SDS011;27639;48.674;9.242;2023-02-22T13:29:38;16.00;;;9.85;;
21501;SDS011;27639;48.674;9.242;2023-02-22T13:35:21;11.98;;;9.18;;
21501;SDS011;27639;48.674;9.242;2023-02-22T13:37:43;14.27;;;9.18;;
21501;SDS011;27639;48.674;9.242;2023-02-22T13:51:33;12.93;;;9.13;;
21501;SDS011;27639;48.674;9.242;2023-02-22T13:54:14;12.55;;;8.18;;
21501;SDS011;27639;48.674;9.242;2023-02-22T13:56:48;12.60;;;8.05;;
21501;SDS011;27639;48.674;9.242;2023-02-22T14:01:58;12.55;;;7.85;;
21501;SDS011;27639;48.674;9.242;2023-02-22T14:06:57;13.35;;;8.55;;
21501;SDS011;27639;48.674;9.242;2023-02-22T14:15:27;14.10;;;8.35;;
21501;SDS011;27639;48.674;9.242;2023-02-22T14:17:48;14.98;;;9.27;;
21501;SDS011;27639;48.674;9.242;2023-02-22T14:20:31;13.23;;;8.75;;
21501;SDS011;27639;48.674;9.242;2023-02-22T14:23:47;16.05;;;9.30;;
21501;SDS011;27639;48.674;9.242;2023-02-22T14:26:08;13.70;;;8.85;;
21501;SDS011;27639;48.674;9.242;2023-02-22T14:31:13;14.40;;;8.90;;
21501;SDS011;27639;48.674;9.242;2023-02-22T14:44:50;11.90;;;8.38;;
21501;SDS011;27639;48.674;9.242;2023-02-22T14:47:37;15.20;;;8.88;;
21501;SDS011;27639;48.674;9.242;2023-02-22T14:50:17;14.05;;;8.75;;
21501;SDS011;27639;48.674;9.242;2023-02-22T14:52:54;13.88;;;9.15;;
21501;SDS011;27639;48.674;9.242;2023-02-22T14:55:32;14.10;;;8.65;;
21501;SDS011;27639;48.674;9.242;2023-02-22T15:00:45;12.88;;;8.52;;
21501;SDS011;27639;48.674;9.242;2023-02-22T15:03:16;13.55;;;8.30;;
21501;SDS011;27639;48.674;9.242;2023-02-22T15:05:42;13.93;;;9.07;;
21501;SDS011;27639;48.674;9.242;2023-02-22T15:08:08;12.65;;;8.90;;
21501;SDS011;27639;48.674;9.242;2023-02-22T15:10:47;14.00;;;8.95;;
21501;SDS011;27639;48.674;9.242;2023-02-22T15:13:16;13.27;;;9.10;;
21501;SDS011;27639;48.674;9.242;2023-02-22T15:15:53;15.32;;;9.02;;
21501;SDS011;27639;48.674;9.242;2023-02-22T15:21:00;13.18;;;9.35;;
21501;SDS011;27639;48.674;9.242;2023-02-22T15:23:43;12.35;;;8.60;;
21501;SDS011;27639;48.674;9.242;2023-02-22T15:26:22;12.98;;;8.77;;
21501;SDS011;27639;48.674;9.242;2023-02-22T15:28:54;14.43;;;9.00;;
21501;SDS011;27639;48.674;9.242;2023-02-22T15:31:30;13.57;;;9.18;;
21501;SDS011;27639;48.674;9.242;2023-02-22T15:36:36;12.95;;;8.48;;
21501;SDS011;27639;48.674;9.242;2023-02-22T15:39:02;14.75;;;9.05;;
21501;SDS011;27639;48.674;9.242;2023-02-22T15:41:33;16.92;;;8.98;;
21501;SDS011;27639;48.674;9.242;2023-02-22T15:46:30;13.88;;;8.95;;
21501;SDS011;27639;48.674;9.242;2023-02-22T15:52:06;16.25;;;8.68;;
21501;SDS011;27639;48.674;9.242;2023-02-22T15:54:41;14.73;;;8.88;;
21501;SDS011;27639;48.674;9.242;2023-02-22T15:57:11;16.05;;;8.95;;
21501;SDS011;27639;48.674;9.242;2023-02-22T15:59:43;14.82;;;8.98;;
21501;SDS011;27639;48.674;9.242;2023-02-22T16:02:46;14.82;;;8.75;;
21501;SDS011;27639;48.674;9.242;2023-02-22T16:07:41;14.63;;;9.30;;
21501;SDS011;27639;48.674;9.242;2023-02-22T16:10:16;20.83;;;9.07;;
21501;SDS011;27639;48.674;9.242;2023-02-22T16:12:45;17.02;;;8.52;;
21501;SDS011;27639;48.674;9.242;2023-02-22T16:15:16;15.45;;;9.50;;
21501;SDS011;27639;48.674;9.242;2023-02-22T16:17:42;16.48;;;9.25;;
21501;SDS011;27639;48.674;9.242;2023-02-22T16:22:38;16.70;;;9.20;;
21501;SDS011;27639;48.674;9.242;2023-02-22T16:25:22;16.02;;;9.38;;
21501;SDS011;27639;48.674;9.242;2023-02-22T16:27:58;16.20;;;9.57;;
21501;SDS011;27639;48.674;9.242;2023-02-22T16:30:37;15.60;;;10.10;;
21501;SDS011;27639;48.674;9.242;2023-02-22T16:33:04;15.32;;;9.88;;
21501;SDS011;27639;48.674;9.242;2023-02-22T16:35:37;22.10;;;10.32;;
21501;SDS011;27639;48.674;9.242;2023-02-22T16:38:04;17.45;;;10.00;;
21501;SDS011;27639;48.674;9.242;2023-02-22T16:43:07;17.58;;;11.15;;
21501;SDS011;27639;48.674;9.242;2023-02-22T16:45:36;16.70;;;11.25;;
21501;SDS011;27639;48.674;9.242;2023-02-22T16:48:10;16.77;;;10.82;;
21501;SDS011;27639;48.674;9.242;2023-02-22T16:50:43;15.13;;;10.20;;
21501;SDS011;27639;48.674;9.242;2023-02-22T16:53:09;14.10;;;10.77;;
21501;SDS011;27639;48.674;9.242;2023-02-22T16:55:35;15.45;;;10.93;;
21501;SDS011;27639;48.674;9.242;2023-02-22T16:58:01;13.57;;;9.93;;
21501;SDS011;27639;48.674;9.242;2023-02-22T17:00:28;15.10;;;10.73;;
21501;SDS011;27639;48.674;9.242;2023-02-22T17:02:59;19.27;;;11.05;;
21501;SDS011;27639;48.674;9.242;2023-02-22T17:05:32;17.45;;;11.80;;
21501;SDS011;27639;48.674;9.242;2023-02-22T17:08:01;18.60;;;11.73;;
21501;SDS011;27639;48.674;9.242;2023-02-22T17:10:28;16.52;;;11.65;;
21501;SDS011;27639;48.674;9.242;2023-02-22T17:12:53;21.13;;;12.05;;
21501;SDS011;27639;48.674;9.242;2023-02-22T17:15:21;16.13;;;11.40;;
21501;SDS011;27639;48.674;9.242;2023-02-22T17:17:48;20.75;;;13.23;;
21501;SDS011;27639;48.674;9.242;2023-02-22T17:20:17;21.25;;;13.93;;
21501;SDS011;27639;48.674;9.242;2023-02-22T17:25:29;27.42;;;15.45;;
21501;SDS011;27639;48.674;9.242;2023-02-22T17:27:59;23.13;;;16.15;;
21501;SDS011;27639;48.674;9.242;2023-02-22T17:30:25;21.48;;;15.43;;
21501;SDS011;27639;48.674;9.242;2023-02-22T17:32:51;21.33;;;15.60;;
21501;SDS011;27639;48.674;9.242;2023-02-22T17:35:18;23.67;;;16.85;;
21501;SDS011;27639;48.674;9.242;2023-02-22T17:37:47;24.35;;;19.10;;
21501;SDS011;27639;48.674;9.242;2023-02-22T17:40:13;30.13;;;18.25;;
21501;SDS011;27639;48.674;9.242;2023-02-22T17:42:40;28.35;;;17.52;;
21501;SDS011;27639;48.674;9.242;2023-02-22T17:45:10;26.30;;;18.70;;
21501;SDS011;27639;48.674;9.242;2023-02-22T17:47:38;22.05;;;16.85;;
21501;SDS011;27639;48.674;9.242;2023-02-22T17:50:06;22.40;;;17.27;;
21501;SDS011;27639;48.674;9.242;2023-02-22T17:52:32;24.65;;;17.17;;
21501;SDS011;27639;48.674;9.242;2023-02-22T17:54:58;25.45;;;17.02;;